Time;durP1;ratioP1;P1;durP2;ratioP2;P2;SDS_P1;SDS_P2;PMS_P1;PMS_P2;Temp;Humidity;BMP_temperature;BMP_pressure;BME280_temperature;BME280_humidity;BME280_pressure;Samples;Min_cycle;Max_cycle;Signal;HPM_P1;HPM_P2
2021/03/11 00:00:08;;;;;;;22.27;17.30;;;;;;;6.48;61.24;100920.84;5097978;28;20063;-74
2021/03/11 00:03:19;;;;;;;23.23;17.38;;;;;;;6.40;61.17;100923.09;5096287;28;20391;-76
2021/03/11 00:06:23;;;;;;;22.10;16.58;;;;;;;6.38;60.90;100925.88;5097429;28;20058;-77
2021/03/11 00:09:28;;;;;;;22.23;17.23;;;;;;;6.37;61.37;100920.66;5110880;28;20505;-77
2021/03/11 00:12:33;;;;;;;23.35;16.70;;;;;;;6.24;61.07;100928.53;5112063;28;20038;-75
2021/03/11 00:15:39;;;;;;;20.15;16.88;;;;;;;6.27;61.25;100922.16;5107873;28;20355;-75
2021/03/11 00:18:44;;;;;;;25.33;17.98;;;;;;;6.27;61.03;100920.34;5109955;28;20054;-76
2021/03/11 00:21:48;;;;;;;23.17;17.10;;;;;;;6.17;61.45;100923.66;5110834;28;20059;-76
2021/03/11 00:24:52;;;;;;;25.92;17.75;;;;;;;6.11;61.29;100918.69;5111931;28;20043;-75
2021/03/11 00:27:57;;;;;;;26.00;18.67;;;;;;;6.07;61.91;100922.50;5094931;28;20054;-77
2021/03/11 00:31:03;;;;;;;24.80;18.00;;;;;;;6.02;61.85;100925.47;5109605;28;20054;-76
2021/03/11 00:34:07;;;;;;;24.98;18.13;;;;;;;5.99;61.93;100925.63;5110620;28;20046;-75
2021/03/11 00:37:12;;;;;;;23.73;16.90;;;;;;;5.98;62.05;100926.56;5111872;28;20490;-75
2021/03/11 00:40:18;;;;;;;23.55;18.40;;;;;;;5.89;62.21;100928.00;5098628;28;20062;-75
2021/03/11 00:43:23;;;;;;;19.60;16.17;;;;;;;5.91;62.13;100933.22;5112793;28;20489;-75
2021/03/11 00:46:27;;;;;;;25.08;18.60;;;;;;;5.83;62.36;100938.09;5101272;28;20046;-76
2021/03/11 00:49:34;;;;;;;22.92;17.42;;;;;;;5.76;62.55;100926.09;5094388;28;20047;-76
2021/03/11 00:52:39;;;;;;;24.70;18.00;;;;;;;5.75;62.70;100927.88;5090409;28;20047;-72
2021/03/11 00:55:43;;;;;;;22.02;17.15;;;;;;;5.83;62.72;100928.31;5091508;28;20067;-73
2021/03/11 00:58:47;;;;;;;23.23;17.83;;;;;;;5.79;62.48;100937.44;5093425;28;20059;-74
2021/03/11 01:01:52;;;;;;;26.40;18.73;;;;;;;5.75;62.75;100932.38;5093863;28;20063;-76
2021/03/11 01:04:56;;;;;;;25.85;17.92;;;;;;;5.71;62.93;100920.19;5094689;28;20505;-76
2021/03/11 01:08:01;;;;;;;24.30;17.25;;;;;;;5.68;63.02;100918.56;5079062;28;20114;-74
2021/03/11 01:11:06;;;;;;;25.42;17.55;;;;;;;5.67;62.84;100918.66;5092540;28;20047;-73
2021/03/11 01:14:11;;;;;;;23.88;17.85;;;;;;;5.69;62.95;100924.75;5093616;28;20047;-73
2021/03/11 01:17:15;;;;;;;21.50;16.67;;;;;;;5.66;62.90;100931.09;5094858;28;20059;-77
2021/03/11 01:20:20;;;;;;;26.85;17.85;;;;;;;5.56;63.28;100923.72;5089867;28;20043;-77
2021/03/11 01:23:24;;;;;;;23.30;17.25;;;;;;;5.44;63.69;100925.31;5091812;28;20395;-76
2021/03/11 01:26:29;;;;;;;23.05;17.65;;;;;;;5.46;63.61;100918.09;5093063;28;20051;-78
2021/03/11 01:29:33;;;;;;;23.25;17.15;;;;;;;5.41;63.81;100909.50;5094142;28;20059;-76
2021/03/11 01:32:37;;;;;;;21.98;17.30;;;;;;;5.43;63.76;100912.94;5089732;28;20036;-78
2021/03/11 01:35:41;;;;;;;23.60;17.52;;;;;;;5.44;63.83;100908.47;5090886;28;20036;-76
2021/03/11 01:38:46;;;;;;;24.83;17.75;;;;;;;5.45;63.77;100904.88;5091174;28;20597;-76
2021/03/11 01:41:50;;;;;;;22.13;17.77;;;;;;;5.48;63.18;100899.38;5093006;28;20059;-76
2021/03/11 01:44:55;;;;;;;25.30;18.27;;;;;;;5.47;63.44;100902.97;5094371;28;20043;-77
2021/03/11 01:47:59;;;;;;;24.02;17.40;;;;;;;5.43;63.51;100904.13;5091712;28;20046;-75
2021/03/11 01:51:04;;;;;;;24.88;16.98;;;;;;;5.49;63.26;100901.94;5110567;28;20050;-75
2021/03/11 01:54:10;;;;;;;21.65;16.85;;;;;;;5.52;63.30;100896.44;5112602;28;20046;-73
2021/03/11 01:57:14;;;;;;;24.35;17.33;;;;;;;5.62;62.66;100886.97;5101450;28;20043;-74
2021/03/11 02:00:19;;;;;;;23.10;17.52;;;;;;;5.68;62.71;100883.94;5109791;28;20038;-73
2021/03/11 02:03:23;;;;;;;24.20;15.98;;;;;;;5.72;62.59;100885.47;5098382;28;20043;-77
2021/03/11 02:06:27;;;;;;;23.33;16.40;;;;;;;5.77;62.48;100875.41;5099519;28;20050;-75
2021/03/11 02:09:31;;;;;;;24.33;17.92;;;;;;;5.73;62.64;100873.00;5100623;28;20525;-76
2021/03/11 02:12:39;;;;;;;22.52;16.40;;;;;;;5.76;62.46;100876.34;5114151;28;20051;-75
2021/03/11 02:16:13;;;;;;;22.80;16.42;;;;;;;5.74;62.33;100874.72;5110819;28;20055;-74
2021/03/11 02:19:39;;;;;;;24.05;17.23;;;;;;;5.73;62.31;100860.53;5114544;28;20046;-73
2021/03/11 02:23:25;;;;;;;24.00;18.00;;;;;;;5.64;62.70;100866.44;5110613;28;20058;-74
2021/03/11 02:27:06;;;;;;;22.88;16.77;;;;;;;5.64;62.69;100877.09;5096626;28;20038;-74
2021/03/11 02:30:11;;;;;;;20.90;15.98;;;;;;;5.58;62.79;100869.44;5099785;28;20043;-73
2021/03/11 02:33:16;;;;;;;24.27;16.73;;;;;;;5.55;62.61;100863.47;5113564;28;20066;-76
2021/03/11 02:36:23;;;;;;;23.52;16.30;;;;;;;5.58;62.76;100858.78;5109450;28;20481;-76
2021/03/11 02:39:29;;;;;;;23.80;15.45;;;;;;;5.58;62.67;100857.97;5111353;28;20054;-77
2021/03/11 02:42:34;;;;;;;23.65;15.55;;;;;;;5.63;62.66;100853.22;5112741;28;20054;-75
2021/03/11 02:45:40;;;;;;;22.08;16.48;;;;;;;5.64;63.04;100863.78;5114100;28;20478;-77
2021/03/11 02:48:47;;;;;;;22.38;17.23;;;;;;;5.50;62.84;100861.06;5109849;28;20113;-76
2021/03/11 02:51:55;;;;;;;22.55;16.85;;;;;;;5.48;62.87;100856.78;5112916;28;20047;-74
2021/03/11 02:55:02;;;;;;;21.98;15.82;;;;;;;5.55;62.85;100859.00;5096419;28;20039;-75
2021/03/11 02:58:09;;;;;;;21.10;16.00;;;;;;;5.46;62.75;100848.88;5095174;28;20038;-75
2021/03/11 03:01:17;;;;;;;20.73;15.82;;;;;;;5.51;63.00;100846.78;5097746;28;20063;-73
2021/03/11 03:04:23;;;;;;;22.30;16.15;;;;;;;5.51;63.00;100848.59;5109330;28;20066;-76
2021/03/11 03:07:29;;;;;;;23.35;15.95;;;;;;;5.59;62.74;100841.88;5098078;28;20054;-76
2021/03/11 03:10:36;;;;;;;23.92;16.80;;;;;;;5.66;62.09;100851.22;5101545;28;20498;-75
2021/03/11 03:13:41;;;;;;;21.75;15.63;;;;;;;5.60;62.05;100843.59;5096302;28;20051;-73
2021/03/11 03:16:47;;;;;;;23.08;16.23;;;;;;;5.67;62.07;100844.09;5110152;28;20156;-76
2021/03/11 03:19:52;;;;;;;21.02;16.77;;;;;;;5.63;62.19;100843.41;5111924;28;20050;-74
2021/03/11 03:23:00;;;;;;;24.00;16.02;;;;;;;5.69;61.61;100840.38;5112641;28;20051;-74
2021/03/11 03:26:04;;;;;;;24.58;15.73;;;;;;;5.65;61.84;100838.84;5109406;28;20043;-75
2021/03/11 03:29:09;;;;;;;20.95;15.50;;;;;;;5.60;61.93;100835.63;5110513;28;20067;-74
2021/03/11 03:32:13;;;;;;;22.42;15.63;;;;;;;5.61;61.94;100839.13;5103128;28;20047;-75
2021/03/11 03:35:18;;;;;;;20.23;15.35;;;;;;;5.68;61.68;100843.13;5110951;28;20102;-75
2021/03/11 03:38:23;;;;;;;19.85;14.90;;;;;;;5.67;61.39;100844.94;5096493;28;20067;-74
2021/03/11 03:41:29;;;;;;;19.60;14.32;;;;;;;5.88;60.52;100849.00;5110239;28;20047;-74
2021/03/11 03:44:37;;;;;;;20.45;14.82;;;;;;;5.95;59.95;100835.31;5111739;28;20390;-75
2021/03/11 03:47:43;;;;;;;22.13;14.48;;;;;;;5.99;60.01;100836.84;5108038;28;20055;-75
2021/03/11 03:50:49;;;;;;;22.48;15.63;;;;;;;5.97;60.55;100842.28;5110018;28;20062;-76
2021/03/11 03:53:59;;;;;;;21.70;14.30;;;;;;;5.90;60.86;100838.25;5087880;28;20055;-76
2021/03/11 03:57:21;;;;;;;22.63;14.82;;;;;;;5.86;61.07;100837.59;5108868;28;20058;-75
2021/03/11 04:00:25;;;;;;;23.17;15.00;;;;;;;5.91;61.02;100837.31;5109439;28;20050;-76
2021/03/11 04:03:32;;;;;;;20.85;14.15;;;;;;;5.92;61.14;100838.16;5110603;28;20054;-76
2021/03/11 04:06:37;;;;;;;21.23;15.43;;;;;;;5.96;61.29;100835.22;5112302;28;20043;-76
2021/03/11 04:09:45;;;;;;;22.52;15.70;;;;;;;5.93;61.27;100838.06;5108162;28;20062;-76
2021/03/11 04:12:50;;;;;;;20.30;15.45;;;;;;;5.92;61.57;100839.03;5081876;28;20039;-76
2021/03/11 04:15:55;;;;;;;22.98;16.20;;;;;;;6.04;61.28;100848.94;5111152;28;20414;-75
2021/03/11 04:19:01;;;;;;;20.48;14.38;;;;;;;5.85;61.44;100846.53;5111680;28;20043;-76
2021/03/11 04:22:06;;;;;;;20.17;14.57;;;;;;;5.81;61.78;100844.09;5115726;28;20043;-76
2021/03/11 04:25:10;;;;;;;19.23;15.27;;;;;;;5.74;61.55;100840.97;5112186;28;20046;-76
2021/03/11 04:28:15;;;;;;;21.38;14.60;;;;;;;5.74;62.07;100838.31;5113618;28;20058;-76
2021/03/11 04:31:19;;;;;;;21.33;14.90;;;;;;;5.70;62.14;100849.25;5114878;28;20046;-73
2021/03/11 04:34:24;;;;;;;18.23;14.25;;;;;;;5.75;62.29;100849.81;5091830;28;20039;-75
2021/03/11 04:37:30;;;;;;;22.17;15.05;;;;;;;5.74;62.21;100834.78;5111753;28;20102;-73
2021/03/11 04:40:34;;;;;;;24.15;15.35;;;;;;;5.73;62.39;100844.56;5113215;28;20054;-75
2021/03/11 04:43:41;;;;;;;20.30;14.57;;;;;;;5.71;62.54;100842.94;5114646;28;20061;-75
2021/03/11 04:46:45;;;;;;;24.88;15.40;;;;;;;5.65;62.55;100843.31;5115967;28;20066;-75
2021/03/11 04:49:49;;;;;;;20.80;14.68;;;;;;;5.66;62.18;100839.69;5111430;28;20051;-75
2021/03/11 04:52:54;;;;;;;22.95;15.23;;;;;;;5.67;62.49;100830.78;5112769;28;20489;-76
2021/03/11 04:55:59;;;;;;;21.83;14.85;;;;;;;5.71;62.27;100830.50;5113943;28;20089;-74
2021/03/11 04:59:03;;;;;;;22.73;14.90;;;;;;;5.66;62.37;100826.38;5115126;28;20038;-74
2021/03/11 05:02:10;;;;;;;23.40;15.63;;;;;;;5.69;62.31;100837.72;5098649;28;20047;-74
2021/03/11 05:05:25;;;;;;;22.88;15.98;;;;;;;5.63;62.68;100843.41;5112438;28;20038;-76
2021/03/11 05:08:29;;;;;;;22.25;15.45;;;;;;;5.59;62.90;100839.22;5111055;28;20046;-76
2021/03/11 05:11:33;;;;;;;20.35;13.98;;;;;;;5.58;62.96;100837.50;5088132;28;20043;-77
2021/03/11 05:14:37;;;;;;;23.77;15.55;;;;;;;5.63;63.08;100845.22;5101850;28;20042;-75
2021/03/11 05:17:42;;;;;;;21.20;15.32;;;;;;;5.65;63.03;100849.47;5112210;28;20055;-75
2021/03/11 05:20:46;;;;;;;24.33;15.68;;;;;;;5.58;63.52;100864.13;5103120;28;20067;-76
2021/03/11 05:23:51;;;;;;;19.83;15.13;;;;;;;5.53;63.59;100866.19;5110622;28;20050;-75
2021/03/11 05:26:55;;;;;;;23.40;16.10;;;;;;;5.52;63.77;100860.97;5112420;28;20055;-75
2021/03/11 05:30:00;;;;;;;21.35;15.45;;;;;;;5.55;63.71;100868.78;5113450;28;20054;-76
2021/03/11 05:33:05;;;;;;;21.52;15.85;;;;;;;5.56;63.43;100862.50;5102229;28;20054;-76
2021/03/11 05:36:09;;;;;;;19.98;15.60;;;;;;;5.46;63.84;100859.50;5104468;28;20054;-75
2021/03/11 05:39:13;;;;;;;21.70;15.65;;;;;;;5.44;63.11;100863.22;5101079;28;20042;-74
2021/03/11 05:42:19;;;;;;;22.02;15.05;;;;;;;5.47;63.69;100860.38;5100498;28;20046;-75
2021/03/11 05:45:25;;;;;;;20.83;14.82;;;;;;;5.56;63.74;100879.34;5101613;28;20043;-74
2021/03/11 05:48:34;;;;;;;19.95;15.15;;;;;;;5.62;63.76;100871.00;5110303;28;20062;-75
2021/03/11 05:51:39;;;;;;;24.52;16.05;;;;;;;5.74;63.20;100872.94;5112786;28;20055;-74
2021/03/11 05:54:45;;;;;;;21.65;16.55;;;;;;;5.66;63.05;100883.16;5114084;28;20051;-75
2021/03/11 05:57:49;;;;;;;19.30;14.70;;;;;;;5.73;62.73;100884.50;5092801;28;20047;-75
2021/03/11 06:00:53;;;;;;;21.02;14.13;;;;;;;5.99;62.57;100898.13;5093507;28;20043;-74
2021/03/11 06:04:00;;;;;;;115.53;79.13;;;;;;;6.10;62.06;100893.03;5112525;28;20046;-75
2021/03/11 06:07:09;;;;;;;44.47;32.50;;;;;;;6.26;61.50;100899.97;5101494;28;20450;-74
2021/03/11 06:10:21;;;;;;;21.88;15.88;;;;;;;6.39;61.00;100895.59;5110796;28;20047;-74
2021/03/11 06:13:26;;;;;;;27.55;18.88;;;;;;;6.74;60.74;100896.03;5114238;28;20398;-74
2021/03/11 06:16:32;;;;;;;28.10;19.42;;;;;;;7.15;60.62;100890.72;5097363;28;20034;-74
2021/03/11 06:19:36;;;;;;;24.38;16.85;;;;;;;7.40;59.06;100895.31;5098168;28;20396;-75
2021/03/11 06:22:41;;;;;;;24.63;15.40;;;;;;;7.50;58.31;100896.44;5110258;28;20043;-76
2021/03/11 06:25:50;;;;;;;19.73;14.13;;;;;;;7.45;57.34;100893.19;5114434;28;20063;-75
2021/03/11 06:28:55;;;;;;;22.40;14.40;;;;;;;7.36;57.73;100900.00;5110730;28;20055;-76
2021/03/11 06:31:59;;;;;;;21.10;14.63;;;;;;;7.61;56.93;100886.72;5088093;28;20398;-76
2021/03/11 06:35:19;;;;;;;21.75;14.32;;;;;;;7.67;56.34;100888.13;5113026;28;20059;-76
2021/03/11 06:38:27;;;;;;;25.80;13.90;;;;;;;7.94;56.13;100894.28;5112911;28;20058;-75
2021/03/11 06:41:52;;;;;;;19.63;13.82;;;;;;;8.21;55.61;100902.22;5099803;28;20042;-75
2021/03/11 06:44:57;;;;;;;19.23;14.02;;;;;;;8.60;54.58;100902.13;5108480;28;20043;-74
2021/03/11 06:48:29;;;;;;;24.38;15.38;;;;;;;8.86;53.32;100905.63;5099536;28;20043;-76
2021/03/11 06:51:33;;;;;;;24.75;15.90;;;;;;;8.80;53.15;100901.56;5097462;28;20050;-77
2021/03/11 06:54:57;;;;;;;31.67;15.07;;;;;;;8.75;53.67;100900.19;5104291;28;20055;-75
2021/03/11 06:58:15;;;;;;;22.05;13.80;;;;;;;8.70;53.59;100902.34;5061606;28;20044;-76
2021/03/11 07:01:19;;;;;;;23.08;14.02;;;;;;;8.71;56.67;100912.09;5087944;28;20043;-76
2021/03/11 07:04:24;;;;;;;26.10;13.30;;;;;;;8.72;54.59;100917.31;5073133;28;20059;-76
2021/03/11 07:07:28;;;;;;;30.42;13.55;;;;;;;8.44;55.50;100921.06;5074272;28;20098;-77
2021/03/11 07:10:33;;;;;;;20.52;13.52;;;;;;;8.43;55.93;100929.22;5074183;28;20051;-76
2021/03/11 07:13:40;;;;;;;24.48;14.05;;;;;;;8.36;56.69;100920.78;5082087;28;20430;-76
2021/03/11 07:16:44;;;;;;;26.30;13.75;;;;;;;8.49;56.61;100928.81;5100520;28;20446;-77
2021/03/11 07:20:08;;;;;;;27.90;15.65;;;;;;;8.65;56.46;100921.41;5105914;28;20051;-78
2021/03/11 07:23:17;;;;;;;27.25;14.07;;;;;;;8.78;56.26;100927.59;5110026;28;20058;-75
2021/03/11 07:26:21;;;;;;;26.38;14.25;;;;;;;9.07;55.17;100925.50;5114065;28;20485;-73
2021/03/11 07:29:26;;;;;;;27.75;14.57;;;;;;;8.92;55.76;100930.13;5114379;28;20406;-74
2021/03/11 07:32:33;;;;;;;35.70;14.30;;;;;;;9.24;55.55;100925.13;5113720;28;20382;-73
2021/03/11 07:35:38;;;;;;;24.65;14.65;;;;;;;9.67;54.61;100929.03;5114589;28;20058;-76
2021/03/11 07:38:43;;;;;;;32.83;13.95;;;;;;;9.99;53.88;100925.72;5101774;28;20051;-76
2021/03/11 07:41:48;;;;;;;33.53;14.80;;;;;;;10.23;53.32;100931.91;5114333;28;20043;-76
2021/03/11 07:45:07;;;;;;;28.15;14.07;;;;;;;10.53;53.07;100934.91;5113491;28;20378;-75
2021/03/11 07:48:15;;;;;;;23.10;13.80;;;;;;;10.74;52.20;100927.00;5115268;28;20044;-75
2021/03/11 07:51:20;;;;;;;22.25;13.23;;;;;;;10.85;51.62;100925.16;5076999;28;20048;-75
2021/03/11 07:54:25;;;;;;;19.27;13.50;;;;;;;11.19;51.43;100925.97;5065177;28;20052;-74
2021/03/11 07:57:33;;;;;;;24.52;13.88;;;;;;;11.67;50.47;100934.56;5076872;28;20041;-73
2021/03/11 08:00:38;;;;;;;23.98;13.50;;;;;;;12.14;49.27;100928.75;5077401;28;20048;-73
2021/03/11 08:03:49;;;;;;;20.45;12.93;;;;;;;12.63;48.19;100929.91;5065169;28;20044;-73
2021/03/11 08:07:14;;;;;;;26.20;13.77;;;;;;;12.99;47.33;100934.75;5077317;28;20041;-74
2021/03/11 08:10:20;;;;;;;25.33;13.82;;;;;;;13.70;46.01;100948.00;5076842;28;20044;-74
2021/03/11 08:13:28;;;;;;;24.92;13.82;;;;;;;14.50;43.50;100936.94;5076882;28;20040;-72
2021/03/11 08:16:33;;;;;;;22.35;14.65;;;;;;;14.98;41.69;100934.94;5064814;28;20037;-72
2021/03/11 08:19:38;;;;;;;22.65;14.70;;;;;;;15.01;41.16;100938.34;5077011;28;20041;-75
2021/03/11 08:22:57;;;;;;;22.48;14.80;;;;;;;14.69;41.52;100936.06;5076804;28;20460;-71
2021/03/11 08:26:03;;;;;;;30.55;14.63;;;;;;;13.96;43.18;100942.94;5064697;28;20472;-74
2021/03/11 08:29:19;;;;;;;24.88;15.63;;;;;;;13.75;44.67;100942.22;5076860;28;20479;-74
2021/03/11 08:32:51;;;;;;;37.05;15.98;;;;;;;13.48;44.61;100942.88;5064586;28;20068;-73
2021/03/11 08:36:02;;;;;;;28.02;17.17;;;;;;;13.37;44.40;100963.72;5065630;28;20037;-73
2021/03/11 08:39:31;;;;;;;26.95;18.27;;;;;;;13.31;44.59;100954.31;5076750;28;20391;-74
2021/03/11 08:42:44;;;;;;;26.30;18.40;;;;;;;13.09;44.42;100951.84;5076639;28;20048;-74
2021/03/11 08:45:52;;;;;;;27.90;18.45;;;;;;;12.94;44.54;100950.47;5076597;28;20052;-73
2021/03/11 08:49:00;;;;;;;24.95;17.88;;;;;;;12.88;44.45;100959.97;5063681;28;20495;-73
2021/03/11 08:52:04;;;;;;;27.90;18.52;;;;;;;12.82;45.94;100962.31;5076507;28;20383;-76
2021/03/11 08:55:31;;;;;;;29.83;17.50;;;;;;;13.20;45.95;100956.28;5076406;28;20032;-78
2021/03/11 08:58:50;;;;;;;30.20;18.10;;;;;;;13.84;45.94;100964.78;5064128;28;20056;-75
2021/03/11 09:01:55;;;;;;;24.90;18.27;;;;;;;14.54;47.08;100949.16;5076562;28;20040;-76
2021/03/11 09:04:59;;;;;;;27.27;17.13;;;;;;;15.35;45.81;100953.00;5076417;28;20044;-73
2021/03/11 09:08:10;;;;;;;34.05;17.95;;;;;;;15.48;46.61;100959.75;5076023;28;20044;-73
2021/03/11 09:11:20;;;;;;;28.00;16.67;;;;;;;15.40;47.54;100951.53;5083020;28;20052;-73
2021/03/11 09:14:26;;;;;;;28.85;16.73;;;;;;;15.41;47.61;100957.78;5076185;28;20397;-74
2021/03/11 09:17:32;;;;;;;26.80;17.00;;;;;;;15.14;48.06;100952.38;5076160;28;20037;-76
2021/03/11 09:20:37;;;;;;;27.58;17.20;;;;;;;15.09;47.95;100951.94;5063870;28;20384;-73
2021/03/11 09:23:42;;;;;;;23.48;17.80;;;;;;;14.91;48.64;100954.63;5063561;28;20044;-76
2021/03/11 09:26:47;;;;;;;26.65;18.13;;;;;;;14.48;49.18;100962.38;5076046;28;20040;-75
2021/03/11 09:29:51;;;;;;;32.83;18.48;;;;;;;13.97;49.29;100970.78;5063560;28;20461;-78
2021/03/11 09:32:56;;;;;;;25.80;17.75;;;;;;;13.83;50.32;100961.25;5076167;28;20048;-74
2021/03/11 09:36:07;;;;;;;31.73;18.25;;;;;;;13.58;50.47;100956.38;5075894;28;20044;-75
2021/03/11 09:39:17;;;;;;;35.40;19.48;;;;;;;13.59;51.27;100960.78;5075756;28;20044;-75
2021/03/11 09:42:21;;;;;;;26.05;18.38;;;;;;;13.52;51.13;100968.59;5075628;28;20048;-76
2021/03/11 09:45:45;;;;;;;28.83;19.48;;;;;;;13.52;51.53;100974.00;5075375;28;20064;-74
2021/03/11 09:48:53;;;;;;;25.55;18.70;;;;;;;13.66;51.58;100964.63;5062701;28;20041;-76
2021/03/11 09:52:04;;;;;;;27.75;19.95;;;;;;;13.37;51.90;100961.00;5063040;28;20044;-74
2021/03/11 09:55:09;;;;;;;28.67;19.48;;;;;;;13.10;53.31;100967.03;5062970;28;20460;-74
2021/03/11 09:58:17;;;;;;;25.70;19.13;;;;;;;12.96;52.89;100965.50;5062966;28;20048;-76
2021/03/11 10:01:26;;;;;;;35.78;20.25;;;;;;;13.01;52.93;100957.88;5075443;28;20037;-75
2021/03/11 10:04:30;;;;;;;27.05;18.88;;;;;;;13.06;52.00;100965.56;5063104;28;20044;-75
2021/03/11 10:07:35;;;;;;;31.63;20.02;;;;;;;12.96;52.46;100965.50;5075286;28;20383;-73
2021/03/11 10:10:39;;;;;;;29.77;18.92;;;;;;;13.13;52.75;100957.81;5074535;28;20044;-73
2021/03/11 10:13:50;;;;;;;24.05;18.65;;;;;;;13.05;52.17;100961.16;5062562;28;20045;-72
2021/03/11 10:16:57;;;;;;;31.15;19.52;;;;;;;12.81;51.23;100960.63;5075039;28;20049;-73
2021/03/11 10:20:22;;;;;;;28.35;18.70;;;;;;;12.78;51.56;100961.75;5075006;28;20053;-72
2021/03/11 10:23:27;;;;;;;27.95;18.73;;;;;;;12.77;51.21;100964.56;5075185;28;20044;-73
2021/03/11 10:26:35;;;;;;;30.52;19.27;;;;;;;12.90;50.82;100951.72;5062610;28;20040;-73
2021/03/11 10:29:48;;;;;;;34.42;19.40;;;;;;;13.09;50.83;100959.91;5074686;28;20044;-73
2021/03/11 10:32:58;;;;;;;29.25;18.45;;;;;;;13.25;50.33;100952.19;5062241;28;20388;-74
2021/03/11 10:36:22;;;;;;;26.15;19.50;;;;;;;13.36;50.65;100957.47;5062446;28;20037;-73
2021/03/11 10:39:27;;;;;;;25.73;19.58;;;;;;;13.41;50.72;100948.94;5074647;28;20471;-73
2021/03/11 10:42:42;;;;;;;24.02;19.60;;;;;;;13.45;50.79;100951.25;5074617;28;20041;-73
2021/03/11 10:45:47;;;;;;;25.13;20.27;;;;;;;13.43;50.12;100950.53;5074685;28;20036;-73
2021/03/11 10:48:53;;;;;;;30.25;20.77;;;;;;;13.58;50.18;100951.84;5073760;28;20032;-74
2021/03/11 10:52:00;;;;;;;25.95;20.00;;;;;;;13.89;49.36;100951.75;5050644;28;20060;-74
2021/03/11 10:55:24;;;;;;;29.23;21.52;;;;;;;13.98;48.45;100948.19;5061813;28;20360;-73
2021/03/11 10:58:28;;;;;;;25.92;21.45;;;;;;;14.06;48.91;100948.31;5074282;28;20376;-74
2021/03/11 11:01:34;;;;;;;30.20;23.35;;;;;;;14.15;48.78;100950.16;5061910;28;20052;-73
2021/03/11 11:04:40;;;;;;;30.05;22.17;;;;;;;14.23;48.46;100939.50;5073822;28;20074;-74
2021/03/11 11:07:44;;;;;;;36.33;22.75;;;;;;;14.27;48.74;100928.25;5074073;28;20036;-74
2021/03/11 11:10:49;;;;;;;33.08;22.00;;;;;;;14.25;49.30;100924.00;5061659;28;20044;-73
2021/03/11 11:13:54;;;;;;;35.70;22.27;;;;;;;14.35;48.68;100914.06;5061615;28;20048;-73
2021/03/11 11:16:59;;;;;;;36.67;22.92;;;;;;;14.25;49.29;100913.19;5073999;28;20044;-74
2021/03/11 11:20:06;;;;;;;29.70;23.98;;;;;;;14.06;50.40;100915.94;5073986;28;20049;-76
2021/03/11 11:23:10;;;;;;;34.78;23.52;;;;;;;14.00;50.59;100919.22;5060550;28;20049;-76
2021/03/11 11:26:15;;;;;;;35.28;23.13;;;;;;;14.02;50.71;100919.94;5073812;28;20468;-75
2021/03/11 11:29:19;;;;;;;34.92;23.30;;;;;;;14.15;50.30;100917.75;5061386;28;20048;-74
2021/03/11 11:32:24;;;;;;;33.63;23.50;;;;;;;14.27;49.89;100911.22;5061619;28;20044;-75
2021/03/11 11:35:28;;;;;;;31.48;22.70;;;;;;;14.11;50.03;100911.81;5073769;28;20041;-75
2021/03/11 11:38:32;;;;;;;31.95;21.90;;;;;;;14.18;50.48;100912.94;5049889;28;20040;-75
2021/03/11 11:41:41;;;;;;;37.20;23.90;;;;;;;14.03;51.01;100903.56;5061399;28;20041;-74
2021/03/11 11:44:46;;;;;;;30.92;25.25;;;;;;;13.77;52.06;100912.41;5073798;28;20044;-74
2021/03/11 11:47:50;;;;;;;32.00;25.48;;;;;;;13.76;52.47;100905.28;5073769;28;20044;-75
2021/03/11 11:50:55;;;;;;;30.92;24.65;;;;;;;13.49;53.33;100903.28;5073503;28;20053;-74
2021/03/11 11:53:59;;;;;;;33.45;25.33;;;;;;;13.52;53.63;100895.75;5073912;28;20372;-75
2021/03/11 11:57:05;;;;;;;32.60;24.80;;;;;;;13.76;53.36;100889.09;5073686;28;20041;-76
2021/03/11 12:00:12;;;;;;;38.55;26.55;;;;;;;13.70;52.87;100883.25;5073631;28;20045;-74
2021/03/11 12:03:17;;;;;;;30.25;24.60;;;;;;;13.65;53.07;100882.84;5073546;28;20045;-74
2021/03/11 12:06:21;;;;;;;33.25;23.80;;;;;;;13.80;52.90;100877.03;5061298;28;20503;-77
2021/03/11 12:09:25;;;;;;;36.85;25.05;;;;;;;13.97;52.39;100857.41;5060970;28;20052;-77
2021/03/11 12:12:30;;;;;;;36.53;25.63;;;;;;;14.11;52.77;100848.88;5073592;28;20388;-74
2021/03/11 12:15:34;;;;;;;30.55;25.05;;;;;;;14.26;52.59;100845.56;5060863;28;20048;-76
2021/03/11 12:18:39;;;;;;;36.00;24.65;;;;;;;14.06;52.35;100840.34;5073492;28;20479;-77
2021/03/11 12:21:44;;;;;;;34.05;24.73;;;;;;;13.94;52.73;100828.00;5073387;28;20053;-74
2021/03/11 12:24:49;;;;;;;34.28;25.45;;;;;;;14.00;52.72;100814.78;5061013;28;20048;-73
2021/03/11 12:27:53;;;;;;;35.75;24.55;;;;;;;13.95;52.74;100813.53;5061177;28;20044;-73
2021/03/11 12:30:58;;;;;;;30.92;24.85;;;;;;;14.10;52.83;100803.97;5073105;28;20056;-74
2021/03/11 12:34:03;;;;;;;30.88;23.58;;;;;;;14.17;52.25;100802.41;5074636;28;20044;-75
2021/03/11 12:37:07;;;;;;;31.35;24.30;;;;;;;14.14;52.53;100792.75;5077023;28;20044;-73
2021/03/11 12:40:13;;;;;;;30.25;23.02;;;;;;;14.26;51.99;100785.31;5076958;28;20464;-73
2021/03/11 12:43:18;;;;;;;32.08;24.10;;;;;;;14.31;51.81;100777.66;5064499;28;20040;-74
2021/03/11 12:46:22;;;;;;;30.75;24.02;;;;;;;14.43;51.90;100771.06;5076818;28;20048;-73
2021/03/11 12:49:27;;;;;;;30.25;25.33;;;;;;;14.21;52.64;100776.78;5076145;28;20049;-73
2021/03/11 12:52:31;;;;;;;31.00;24.45;;;;;;;14.11;52.75;100759.78;5076662;28;20048;-75
2021/03/11 12:55:37;;;;;;;34.45;25.50;;;;;;;14.14;53.54;100764.88;5064293;28;20044;-73
2021/03/11 12:58:41;;;;;;;29.38;24.63;;;;;;;14.11;53.28;100749.84;5076601;28;20488;-74
2021/03/11 13:01:46;;;;;;;31.42;25.00;;;;;;;14.02;53.81;100745.31;5076608;28;20041;-73
2021/03/11 13:04:50;;;;;;;33.33;24.95;;;;;;;14.05;53.85;100744.16;5076541;28;20044;-73
2021/03/11 13:07:54;;;;;;;32.50;25.38;;;;;;;13.92;54.14;100743.66;5076441;28;20040;-73
2021/03/11 13:10:59;;;;;;;32.70;26.00;;;;;;;13.78;54.86;100744.94;5063929;28;20044;-73
2021/03/11 13:14:03;;;;;;;35.30;25.40;;;;;;;13.73;55.41;100733.75;5063947;28;20490;-73
2021/03/11 13:17:07;;;;;;;33.60;25.52;;;;;;;13.76;55.37;100732.59;5063955;28;20048;-74
2021/03/11 13:20:13;;;;;;;36.10;26.80;;;;;;;13.63;54.78;100755.34;5076157;28;20048;-73
2021/03/11 13:23:17;;;;;;;43.20;27.25;;;;;;;13.63;55.54;100752.66;5076349;28;20048;-74
2021/03/11 13:26:21;;;;;;;39.25;26.73;;;;;;;13.73;54.97;100749.94;5075993;28;20384;-74
2021/03/11 13:29:26;;;;;;;36.92;25.60;;;;;;;13.71;55.49;100754.63;5075797;28;20032;-75
2021/03/11 13:32:30;;;;;;;34.03;27.50;;;;;;;13.59;55.24;100743.16;5063503;28;20044;-74
2021/03/11 13:35:35;;;;;;;34.20;27.23;;;;;;;13.64;55.66;100745.41;5075884;28;20040;-72
2021/03/11 13:38:40;;;;;;;38.58;26.65;;;;;;;13.67;56.02;100755.91;5075798;28;20392;-74
2021/03/11 13:41:44;;;;;;;37.58;27.88;;;;;;;13.49;56.09;100761.19;5063265;28;20041;-74
2021/03/11 13:44:50;;;;;;;37.25;26.90;;;;;;;13.40;56.91;100759.38;5063119;28;20375;-73
2021/03/11 13:47:55;;;;;;;35.17;26.65;;;;;;;13.22;57.25;100744.88;5075394;28;20032;-76
2021/03/11 13:50:59;;;;;;;33.85;28.67;;;;;;;13.15;57.56;100748.28;5063108;28;20041;-77
2021/03/11 13:54:04;;;;;;;37.67;27.55;;;;;;;13.07;58.38;100745.44;5075493;28;20040;-77
2021/03/11 13:57:09;;;;;;;40.10;28.98;;;;;;;13.00;58.76;100745.13;5075431;28;20036;-76
2021/03/11 14:00:14;;;;;;;38.13;27.42;;;;;;;13.05;58.88;100742.88;5075405;28;20040;-75
2021/03/11 14:03:21;;;;;;;40.78;29.98;;;;;;;12.97;58.92;100726.53;5075353;28;20045;-75
2021/03/11 14:06:25;;;;;;;35.60;28.80;;;;;;;12.87;59.13;100723.84;5075341;28;20048;-78
2021/03/11 14:09:29;;;;;;;39.33;30.50;;;;;;;12.78;60.27;100730.06;5075169;28;20045;-76
2021/03/11 14:12:34;;;;;;;37.97;30.00;;;;;;;12.72;60.24;100732.44;5075210;28;20041;-73
2021/03/11 14:15:38;;;;;;;38.35;29.88;;;;;;;12.67;60.28;100732.88;5075089;28;20040;-76